createdAt,value
2019-01-15T00:00:25.978Z,5.13
2019-01-15T00:02:56.368Z,5.73
2019-01-15T00:05:26.750Z,5.27
2019-01-15T00:07:57.493Z,4.90
2019-01-15T00:10:27.882Z,5.40
2019-01-15T00:12:58.279Z,5.67
2019-01-15T00:15:28.988Z,4.50
2019-01-15T00:17:59.437Z,5.37
2019-01-15T00:20:30.208Z,5.37
2019-01-15T00:23:00.588Z,5.20
2019-01-15T00:25:31.313Z,5.40
2019-01-15T00:28:01.958Z,5.13
2019-01-15T00:30:32.350Z,5.40
2019-01-15T00:33:02.729Z,4.50
2019-01-15T00:35:33.116Z,4.23
2019-01-15T00:38:03.492Z,4.07
2019-01-15T00:40:33.903Z,3.90
2019-01-15T00:43:04.347Z,3.90
2019-01-15T00:45:34.745Z,4.40
2019-01-15T00:48:05.165Z,4.90
2019-01-15T00:50:35.544Z,4.60
2019-01-15T00:53:06.221Z,4.90
2019-01-15T00:55:36.604Z,4.00
2019-01-15T00:58:07.009Z,4.77
2019-01-15T01:00:37.386Z,4.53
2019-01-15T01:03:07.771Z,4.30
2019-01-15T01:05:38.472Z,4.90
2019-01-15T01:08:08.843Z,4.17
2019-01-15T01:10:39.244Z,4.53
2019-01-15T01:13:09.621Z,4.13
2019-01-15T01:15:40.038Z,4.03
2019-01-15T01:18:10.411Z,4.10
2019-01-15T01:20:40.816Z,4.13
2019-01-15T01:23:11.464Z,4.37
2019-01-15T01:25:41.849Z,4.83
2019-01-15T01:28:12.526Z,5.40
2019-01-15T01:30:43.873Z,5.43
2019-01-15T01:33:14.265Z,4.60
2019-01-15T01:35:44.659Z,5.07
2019-01-15T01:38:15.329Z,4.63
2019-01-15T01:40:45.721Z,4.80
2019-01-15T01:43:16.096Z,4.40
2019-01-15T01:45:46.493Z,4.33
2019-01-15T01:48:16.900Z,4.40
2019-01-15T01:50:47.603Z,4.77
2019-01-15T01:53:17.990Z,4.53
2019-01-15T01:55:50.431Z,5.20
2019-01-15T01:58:20.820Z,5.93
2019-01-15T02:00:51.190Z,5.20
2019-01-15T02:03:21.581Z,4.47
2019-01-15T02:05:51.961Z,4.97
2019-01-15T02:08:22.371Z,5.10
2019-01-15T02:10:52.752Z,4.97
2019-01-15T02:13:23.145Z,5.03
2019-01-15T02:15:53.516Z,4.63
2019-01-15T02:18:23.914Z,3.90
2019-01-15T02:20:54.572Z,4.23
2019-01-15T02:23:24.972Z,3.50
2019-01-15T02:25:55.416Z,4.23
2019-01-15T02:28:25.826Z,3.30
2019-01-15T02:30:56.481Z,4.43
2019-01-15T02:33:26.869Z,2.90
2019-01-15T02:35:57.267Z,3.37
2019-01-15T02:38:27.634Z,4.10
2019-01-15T02:40:58.038Z,3.40
2019-01-15T02:43:28.416Z,3.63
2019-01-15T02:45:58.795Z,4.80
2019-01-15T02:48:29.204Z,3.70
2019-01-15T02:50:59.574Z,4.13
2019-01-15T02:53:29.966Z,4.50
2019-01-15T02:56:00.362Z,3.90
2019-01-15T02:58:31.097Z,4.47
2019-01-15T03:01:01.487Z,3.70
2019-01-15T03:03:31.875Z,4.03
2019-01-15T03:06:02.260Z,4.17
2019-01-15T03:08:32.655Z,3.13
2019-01-15T03:11:03.039Z,4.07
2019-01-15T03:13:33.434Z,3.10
2019-01-15T03:16:03.821Z,4.37
2019-01-15T03:18:34.196Z,4.10
2019-01-15T03:21:04.596Z,4.00
2019-01-15T03:23:34.984Z,5.03
2019-01-15T03:26:05.383Z,4.20
2019-01-15T03:28:36.125Z,3.73
2019-01-15T03:31:06.604Z,3.87
2019-01-15T03:33:36.976Z,3.17
2019-01-15T03:36:07.396Z,6.53
2019-01-15T03:38:37.768Z,3.10
2019-01-15T03:41:08.462Z,3.17
2019-01-15T03:43:38.851Z,3.47
2019-01-15T03:46:09.258Z,3.70
2019-01-15T03:48:39.666Z,3.60
2019-01-15T03:51:10.033Z,2.87
2019-01-15T03:53:40.420Z,4.00
2019-01-15T03:56:10.808Z,3.60
2019-01-15T03:58:41.202Z,3.67
2019-01-15T04:01:12.422Z,3.40
2019-01-15T04:03:42.808Z,3.10
2019-01-15T04:06:13.186Z,3.40
2019-01-15T04:08:43.812Z,3.80
2019-01-15T04:11:14.213Z,3.53
2019-01-15T04:13:44.611Z,4.57
2019-01-15T04:16:14.989Z,4.30
2019-01-15T04:18:45.377Z,3.70
2019-01-15T04:21:15.759Z,2.93
2019-01-15T04:23:46.136Z,3.30
2019-01-15T04:26:16.531Z,3.27
2019-01-15T04:28:46.911Z,4.00
2019-01-15T04:31:17.314Z,3.80
2019-01-15T04:33:47.954Z,2.90
2019-01-15T04:36:18.342Z,3.33
2019-01-15T04:38:48.732Z,3.23
2019-01-15T04:41:19.120Z,3.17
2019-01-15T04:43:49.516Z,3.23
2019-01-15T04:46:19.895Z,3.10
2019-01-15T04:48:50.296Z,2.80
2019-01-15T04:51:21.266Z,2.80
2019-01-15T04:53:51.739Z,4.13
2019-01-15T04:56:22.107Z,3.03
2019-01-15T04:58:52.513Z,3.87
2019-01-15T05:01:22.960Z,3.10
2019-01-15T05:03:53.350Z,4.53
2019-01-15T05:06:23.731Z,3.20
2019-01-15T05:08:54.114Z,3.97
2019-01-15T05:11:24.484Z,4.07
2019-01-15T05:13:54.888Z,4.10
2019-01-15T05:16:25.263Z,3.67
2019-01-15T05:18:55.671Z,3.63
2019-01-15T05:21:26.394Z,3.63
2019-01-15T05:23:56.802Z,5.03
2019-01-15T05:26:28.316Z,3.80
2019-01-15T05:28:58.834Z,2.80
2019-01-15T05:31:29.213Z,4.23
2019-01-15T05:33:59.601Z,3.77
2019-01-15T05:36:30.606Z,3.53
2019-01-15T05:39:00.964Z,3.60
2019-01-15T05:41:31.358Z,4.43
2019-01-15T05:44:01.734Z,4.10
2019-01-15T05:46:32.144Z,3.50
2019-01-15T05:49:02.519Z,3.63
2019-01-15T05:51:41.786Z,3.60
2019-01-15T05:54:12.160Z,3.63
2019-01-15T05:56:42.933Z,3.93
2019-01-15T05:59:13.322Z,3.07
2019-01-15T06:01:44.097Z,3.13
2019-01-15T06:04:14.497Z,3.17
2019-01-15T06:06:44.878Z,3.63
2019-01-15T06:09:15.267Z,4.00
2019-01-15T06:11:45.664Z,3.70
2019-01-15T06:14:16.034Z,3.57
2019-01-15T06:16:46.777Z,3.67
2019-01-15T06:19:17.165Z,3.80
2019-01-15T06:21:47.687Z,3.63
2019-01-15T06:24:18.362Z,3.40
2019-01-15T06:26:48.731Z,3.87
2019-01-15T06:29:19.395Z,3.47
2019-01-15T06:31:49.783Z,3.73
2019-01-15T06:34:20.178Z,4.27
2019-01-15T06:36:50.557Z,3.60
2019-01-15T06:39:20.961Z,4.00
2019-01-15T06:41:51.660Z,4.27
2019-01-15T06:44:22.046Z,4.17
2019-01-15T06:46:52.424Z,6.23
2019-01-15T06:49:22.907Z,4.10
2019-01-15T06:51:53.297Z,3.20
2019-01-15T06:54:24.310Z,3.60
2019-01-15T06:56:54.689Z,3.13
2019-01-15T06:59:25.068Z,3.80
2019-01-15T07:01:55.741Z,2.97
2019-01-15T07:04:26.125Z,3.37
2019-01-15T07:06:56.575Z,3.67
2019-01-15T07:09:26.954Z,3.57
2019-01-15T07:11:57.341Z,3.20
2019-01-15T07:14:27.734Z,3.10
2019-01-15T07:17:01.941Z,3.20
2019-01-15T07:19:32.341Z,3.87
2019-01-15T07:22:02.708Z,3.40
2019-01-15T07:24:33.679Z,3.40
2019-01-15T07:27:04.364Z,3.50
2019-01-15T07:29:34.759Z,3.27
2019-01-15T07:32:05.144Z,4.20
2019-01-15T07:34:35.519Z,3.87
2019-01-15T07:37:05.910Z,3.80
2019-01-15T07:39:36.285Z,4.07
2019-01-15T07:42:06.665Z,3.93
2019-01-15T07:44:37.061Z,4.10
2019-01-15T07:47:07.441Z,3.27
2019-01-15T07:49:37.826Z,3.13
2019-01-15T07:52:08.196Z,3.63
2019-01-15T07:54:38.588Z,3.00
2019-01-15T07:57:08.969Z,3.70
2019-01-15T07:59:39.359Z,3.30
2019-01-15T08:02:10.403Z,3.50
2019-01-15T08:04:40.792Z,4.47
2019-01-15T08:07:11.168Z,3.37
2019-01-15T08:09:41.562Z,3.67
2019-01-15T08:12:11.943Z,4.07
2019-01-15T08:14:42.592Z,3.57
2019-01-15T08:17:13.241Z,3.40
2019-01-15T08:19:43.628Z,3.90
2019-01-15T08:22:14.013Z,3.67
2019-01-15T08:24:44.395Z,4.20
2019-01-15T08:27:15.636Z,3.73
2019-01-15T08:29:46.027Z,3.87
2019-01-15T08:32:16.424Z,4.57
2019-01-15T08:34:46.851Z,3.83
2019-01-15T08:37:17.256Z,3.40
2019-01-15T08:39:47.647Z,3.53
2019-01-15T08:42:18.023Z,4.30
2019-01-15T08:44:48.597Z,3.27
2019-01-15T08:47:20.539Z,4.13
2019-01-15T08:49:50.927Z,4.13
2019-01-15T08:52:21.299Z,3.37
2019-01-15T08:54:51.695Z,3.83
2019-01-15T08:57:22.057Z,5.40
2019-01-15T08:59:52.456Z,3.50
2019-01-15T09:02:23.010Z,3.43
2019-01-15T09:04:53.516Z,3.77
2019-01-15T09:07:23.885Z,3.60
2019-01-15T09:09:54.589Z,3.47
2019-01-15T09:12:24.973Z,3.57
2019-01-15T09:14:56.756Z,3.50
2019-01-15T09:17:27.666Z,3.37
2019-01-15T09:19:58.162Z,3.83
2019-01-15T09:22:28.556Z,4.23
2019-01-15T09:24:58.947Z,3.90
2019-01-15T09:27:29.600Z,4.43
2019-01-15T09:30:00.088Z,4.43
2019-01-15T09:32:30.632Z,4.07
2019-01-15T09:35:01.034Z,4.93
2019-01-15T09:37:31.780Z,5.60
2019-01-15T09:40:02.167Z,4.00
2019-01-15T09:42:32.699Z,5.23
2019-01-15T09:45:03.100Z,4.27
2019-01-15T09:47:33.805Z,4.07
2019-01-15T09:50:07.100Z,4.97
2019-01-15T09:52:37.478Z,4.93
2019-01-15T09:55:09.379Z,4.40
2019-01-15T09:57:39.772Z,5.97
2019-01-15T10:00:16.833Z,5.17
2019-01-15T10:02:47.545Z,4.70
2019-01-15T10:05:17.922Z,5.27
2019-01-15T10:07:48.311Z,4.97
2019-01-15T10:10:18.790Z,5.97
2019-01-15T10:12:49.216Z,5.57
2019-01-15T10:15:21.502Z,5.60
2019-01-15T10:17:51.894Z,6.00
2019-01-15T10:20:22.289Z,5.93
2019-01-15T10:22:52.690Z,5.47
2019-01-15T10:25:27.038Z,5.17
2019-01-15T10:27:58.100Z,6.20
2019-01-15T10:30:37.756Z,6.00
2019-01-15T10:33:31.267Z,5.97
2019-01-15T10:36:00.330Z,5.70
2019-01-15T10:38:30.744Z,5.10
2019-01-15T10:41:01.306Z,5.87
2019-01-15T10:43:31.709Z,6.43
2019-01-15T10:46:02.094Z,6.17
2019-01-15T10:48:32.908Z,5.20
2019-01-15T10:51:03.408Z,5.83
2019-01-15T10:53:33.928Z,5.60
2019-01-15T10:56:04.324Z,7.23
2019-01-15T10:58:34.710Z,5.00
2019-01-15T11:01:05.851Z,6.23
2019-01-15T11:03:36.728Z,5.33
2019-01-15T11:06:07.104Z,5.30
2019-01-15T11:08:37.516Z,6.50
2019-01-15T11:11:07.895Z,5.80
2019-01-15T11:13:38.578Z,5.63
2019-01-15T11:16:08.991Z,5.53
2019-01-15T11:18:39.549Z,6.30
2019-01-15T11:21:10.079Z,5.70
2019-01-15T11:23:40.854Z,5.70
2019-01-15T11:26:11.254Z,5.93
2019-01-15T11:28:41.653Z,5.77
2019-01-15T11:31:12.031Z,6.40
2019-01-15T11:33:42.455Z,6.07
2019-01-15T11:36:12.835Z,6.20
2019-01-15T11:38:43.224Z,6.03
2019-01-15T11:41:13.689Z,5.87
2019-01-15T11:43:44.075Z,6.83
2019-01-15T11:46:14.452Z,6.00
2019-01-15T11:48:44.831Z,6.63
2019-01-15T11:51:15.347Z,5.60
2019-01-15T11:53:45.733Z,5.90
2019-01-15T11:56:16.145Z,5.80
2019-01-15T11:58:46.971Z,6.77
2019-01-15T12:01:19.001Z,6.67
2019-01-15T12:03:51.067Z,5.40
2019-01-15T12:06:34.845Z,5.37
2019-01-15T12:09:11.006Z,5.53
2019-01-15T12:11:59.686Z,5.80
2019-01-15T12:14:34.371Z,5.40
2019-01-15T12:17:09.261Z,4.83
2019-01-15T12:19:44.890Z,4.37
2019-01-15T12:22:23.101Z,5.57
2019-01-15T12:25:11.778Z,4.83
2019-01-15T12:27:53.033Z,4.60
2019-01-15T12:30:30.977Z,5.07
2019-01-15T12:33:02.999Z,5.20
2019-01-15T12:35:51.184Z,4.20
2019-01-15T12:38:26.424Z,4.47
2019-01-15T12:40:58.493Z,4.77
2019-01-15T12:43:33.757Z,4.47
2019-01-15T12:46:05.794Z,3.90
2019-01-15T12:48:49.985Z,4.70
2019-01-15T12:51:25.194Z,4.27
2019-01-15T12:53:57.255Z,4.60
2019-01-15T12:56:29.403Z,4.70
2019-01-15T12:59:01.671Z,4.07
2019-01-15T13:01:50.368Z,4.73
2019-01-15T13:04:22.406Z,3.40
2019-01-15T13:07:10.793Z,4.13
2019-01-15T13:09:45.690Z,3.80
2019-01-15T13:12:20.431Z,4.10
2019-01-15T13:14:55.366Z,3.70
2019-01-15T13:17:30.158Z,3.73
2019-01-15T13:20:20.641Z,3.53
2019-01-15T13:22:58.316Z,3.00
2019-01-15T13:25:32.226Z,3.17
2019-01-15T13:28:10.488Z,2.90
2019-01-15T13:30:42.496Z,3.30
2019-01-15T13:33:17.225Z,2.97
2019-01-15T13:35:55.126Z,2.80
2019-01-15T13:38:45.206Z,2.93
2019-01-15T13:41:32.470Z,3.07
2019-01-15T13:44:04.496Z,2.60
2019-01-15T13:46:45.553Z,2.90
2019-01-15T13:49:20.582Z,3.73
2019-01-15T13:52:08.854Z,3.20
2019-01-15T13:54:57.057Z,3.17
2019-01-15T13:57:41.316Z,2.70
2019-01-15T14:00:26.556Z,2.60
2019-01-15T14:03:14.249Z,3.10
2019-01-15T14:05:46.323Z,3.17
2019-01-15T14:08:34.705Z,3.20
2019-01-15T14:11:12.411Z,2.90
2019-01-15T14:13:50.159Z,3.13
2019-01-15T14:16:27.944Z,2.90
2019-01-15T14:18:59.979Z,3.00
2019-01-15T14:21:32.005Z,2.70
2019-01-15T14:24:19.879Z,2.70
2019-01-15T14:27:10.483Z,4.03
2019-01-15T14:29:48.306Z,3.13
2019-01-15T14:32:26.162Z,2.30
2019-01-15T14:35:07.438Z,2.90
2019-01-15T14:37:56.030Z,2.70
2019-01-15T14:40:46.451Z,2.80
2019-01-15T14:43:21.533Z,3.20
2019-01-15T14:46:11.812Z,3.03
2019-01-15T14:48:43.844Z,3.53
2019-01-15T14:51:15.865Z,2.97
2019-01-15T14:54:04.219Z,3.47
2019-01-15T14:56:51.762Z,3.10
2019-01-15T14:59:35.687Z,3.03
2019-01-15T15:02:07.923Z,2.70
2019-01-15T15:04:56.294Z,2.83
2019-01-15T15:07:44.740Z,2.20
2019-01-15T15:10:16.765Z,2.27
2019-01-15T15:12:51.467Z,2.50
2019-01-15T15:15:28.991Z,2.57
2019-01-15T15:18:06.834Z,2.17
2019-01-15T15:20:51.259Z,2.40
2019-01-15T15:23:29.415Z,2.10
2019-01-15T15:26:10.602Z,2.53
2019-01-15T15:28:42.720Z,3.13
2019-01-15T15:31:14.992Z,2.40
2019-01-15T15:33:49.588Z,2.50
2019-01-15T15:36:27.523Z,2.70
2019-01-15T15:39:15.697Z,2.43
2019-01-15T15:42:01.130Z,2.60
2019-01-15T15:44:51.245Z,2.33
2019-01-15T15:47:27.012Z,2.67
2019-01-15T15:49:59.025Z,2.50
2019-01-15T15:52:34.251Z,2.70
2019-01-15T15:55:14.314Z,3.10
2019-01-15T15:57:46.344Z,3.23
2019-01-15T16:00:18.427Z,2.97
2019-01-15T16:02:50.658Z,3.00
2019-01-15T16:05:23.059Z,3.00
2019-01-15T16:08:04.253Z,2.67
2019-01-15T16:10:45.122Z,2.67
2019-01-15T16:13:17.129Z,2.93
2019-01-15T16:15:57.979Z,2.93
2019-01-15T16:18:32.918Z,2.40
2019-01-15T16:21:23.020Z,2.60
2019-01-15T16:23:55.624Z,2.53
2019-01-15T16:26:27.642Z,2.93
2019-01-15T16:28:59.657Z,2.83
2019-01-15T16:31:34.356Z,2.50
2019-01-15T16:34:15.160Z,2.80
2019-01-15T16:36:52.895Z,2.30
2019-01-15T16:39:36.868Z,2.27
2019-01-15T16:42:08.908Z,2.30
2019-01-15T16:44:44.137Z,2.30
2019-01-15T16:47:19.158Z,2.57
2019-01-15T16:49:51.448Z,2.07
2019-01-15T16:52:40.235Z,2.50
2019-01-15T16:55:13.211Z,2.20
2019-01-15T16:57:45.245Z,2.50
2019-01-15T17:00:32.215Z,2.10
2019-01-15T17:03:20.623Z,2.60
2019-01-15T17:05:55.853Z,2.57
2019-01-15T17:08:27.893Z,2.50
2019-01-15T17:10:59.913Z,2.70
2019-01-15T17:13:47.267Z,2.77
2019-01-15T17:16:25.233Z,2.97
2019-01-15T17:19:00.219Z,2.77
2019-01-15T17:21:47.701Z,2.90
2019-01-15T17:24:22.429Z,3.07
2019-01-15T17:26:57.066Z,3.30
2019-01-15T17:29:29.131Z,3.13
2019-01-15T17:32:06.974Z,3.20
2019-01-15T17:34:39.280Z,3.43
2019-01-15T17:37:27.336Z,3.10
2019-01-15T17:40:02.680Z,3.17
2019-01-15T17:42:40.983Z,3.40
2019-01-15T17:45:29.164Z,4.37
2019-01-15T17:48:01.196Z,3.77
2019-01-15T17:50:36.827Z,4.40
2019-01-15T17:53:17.940Z,3.93
2019-01-15T17:56:06.066Z,5.27
2019-01-15T17:58:47.378Z,4.50
2019-01-15T18:01:22.099Z,3.50
2019-01-15T18:04:05.847Z,3.97
2019-01-15T18:06:54.091Z,4.70
2019-01-15T18:09:26.132Z,4.00
2019-01-15T18:12:14.249Z,3.83
2019-01-15T18:14:46.288Z,3.77
2019-01-15T18:17:30.587Z,4.57
2019-01-15T18:20:05.729Z,5.23
2019-01-15T18:22:56.019Z,4.10
2019-01-15T18:25:31.142Z,5.20
2019-01-15T18:28:05.047Z,5.40
2019-01-15T18:30:37.340Z,4.63
2019-01-15T18:33:21.390Z,5.10
2019-01-15T18:35:59.499Z,4.37
2019-01-15T18:38:31.542Z,5.20
2019-01-15T18:41:18.786Z,5.27
2019-01-15T18:43:59.712Z,5.77
2019-01-15T18:46:37.895Z,5.23
2019-01-15T18:49:28.213Z,5.07
2019-01-15T18:52:16.528Z,4.90
2019-01-15T18:54:51.539Z,5.77
2019-01-15T18:57:29.226Z,5.90
2019-01-15T19:00:01.261Z,5.20
2019-01-15T19:02:36.059Z,6.70
2019-01-15T19:05:17.961Z,5.30
2019-01-15T19:07:50.008Z,5.43
2019-01-15T19:10:22.027Z,4.67
2019-01-15T19:13:10.152Z,6.00
2019-01-15T19:15:42.173Z,5.73
2019-01-15T19:18:14.224Z,5.43
2019-01-15T19:20:49.615Z,5.80
2019-01-15T19:23:30.420Z,5.13
2019-01-15T19:26:08.489Z,5.00
2019-01-15T19:28:46.196Z,5.57
2019-01-15T19:31:27.464Z,5.53
2019-01-15T19:34:08.503Z,6.97
2019-01-15T19:36:43.494Z,5.73
2019-01-15T19:39:21.233Z,5.00
2019-01-15T19:42:08.316Z,6.30
2019-01-15T19:44:58.626Z,5.20
2019-01-15T19:47:30.679Z,5.93
2019-01-15T19:50:14.936Z,5.33
2019-01-15T19:52:52.887Z,5.50
2019-01-15T19:55:27.550Z,5.90
2019-01-15T19:58:03.287Z,6.10
2019-01-15T20:00:51.740Z,6.53
2019-01-15T20:03:32.887Z,5.13
2019-01-15T20:06:10.635Z,6.00
2019-01-15T20:08:48.375Z,4.87
2019-01-15T20:11:23.319Z,5.43
2019-01-15T20:14:11.634Z,6.43
2019-01-15T20:16:52.396Z,5.40
2019-01-15T20:19:24.417Z,5.80
2019-01-15T20:22:12.898Z,5.57
2019-01-15T20:24:50.825Z,5.33
2019-01-15T20:27:22.837Z,5.40
2019-01-15T20:30:04.091Z,5.23
2019-01-15T20:32:48.421Z,6.07
2019-01-15T20:35:29.468Z,5.23
2019-01-15T20:38:04.308Z,6.17
2019-01-15T20:40:36.443Z,5.97
2019-01-15T20:43:14.969Z,5.80
2019-01-15T20:45:53.106Z,6.97
2019-01-15T20:48:28.094Z,5.90
2019-01-15T20:51:12.449Z,6.00
2019-01-15T20:53:44.509Z,5.90
2019-01-15T20:56:22.518Z,5.50
2019-01-15T20:59:03.376Z,5.17
2019-01-15T21:01:50.352Z,5.37
2019-01-15T21:04:40.289Z,4.90
2019-01-15T21:07:12.305Z,5.03
2019-01-15T21:10:00.484Z,5.87
2019-01-15T21:12:32.512Z,5.80
2019-01-15T21:15:20.629Z,6.50
2019-01-15T21:18:08.728Z,5.83
2019-01-15T21:20:40.782Z,5.43
2019-01-15T21:23:15.465Z,5.50
2019-01-15T21:25:53.196Z,4.90
2019-01-15T21:28:41.362Z,4.87
2019-01-15T21:31:19.325Z,5.17
2019-01-15T21:34:06.357Z,4.97
2019-01-15T21:36:55.480Z,5.17
2019-01-15T21:39:27.491Z,5.10
2019-01-15T21:42:02.482Z,4.30
2019-01-15T21:44:46.814Z,4.80
2019-01-15T21:47:22.139Z,4.30
2019-01-15T21:49:54.158Z,4.90
2019-01-15T21:52:32.075Z,4.60
2019-01-15T21:55:04.084Z,4.23
2019-01-15T21:57:39.061Z,3.80
2019-01-15T22:00:14.484Z,4.43
2019-01-15T22:02:46.526Z,4.30
2019-01-15T22:05:33.497Z,3.73
2019-01-15T22:08:20.510Z,4.27
2019-01-15T22:10:55.435Z,3.40
2019-01-15T22:13:27.785Z,4.93
2019-01-15T22:16:02.768Z,4.57
2019-01-15T22:18:51.119Z,4.17
2019-01-15T22:21:41.372Z,3.27
2019-01-15T22:24:19.337Z,3.43
2019-01-15T22:26:51.375Z,3.87
2019-01-15T22:29:35.352Z,3.43
2019-01-15T22:32:07.400Z,3.40
2019-01-15T22:34:51.683Z,2.90
2019-01-15T22:37:40.027Z,3.37
2019-01-15T22:40:21.012Z,3.07
2019-01-15T22:43:11.347Z,3.10
2019-01-15T22:45:46.542Z,3.23
2019-01-15T22:48:36.796Z,2.93
2019-01-15T22:51:14.794Z,2.83
2019-01-15T22:53:46.817Z,2.63
2019-01-15T22:56:35.469Z,2.27
2019-01-15T22:59:16.696Z,2.90
2019-01-15T23:02:04.755Z,2.37
2019-01-15T23:04:36.828Z,2.30
2019-01-15T23:07:11.739Z,2.53
2019-01-15T23:09:46.185Z,2.37
2019-01-15T23:12:27.373Z,2.10
2019-01-15T23:14:59.398Z,1.93
2019-01-15T23:17:34.098Z,2.67
2019-01-15T23:20:25.761Z,2.00
2019-01-15T23:23:00.736Z,2.60
2019-01-15T23:25:48.875Z,2.03
2019-01-15T23:28:20.886Z,1.90
2019-01-15T23:31:04.916Z,1.90
2019-01-15T23:33:53.084Z,1.83
2019-01-15T23:36:31.230Z,1.47
2019-01-15T23:39:06.200Z,1.47
2019-01-15T23:41:38.215Z,1.93
2019-01-15T23:44:26.547Z,1.63
2019-01-15T23:47:04.299Z,1.50
2019-01-15T23:49:42.457Z,1.43
2019-01-15T23:52:17.300Z,1.70
2019-01-15T23:54:49.326Z,1.40
2019-01-15T23:57:39.429Z,1.50
